sensor_id;sensor_type;location;lat;lon;timestamp;temperature;humidity
29093;DHT22;16167;48.768;14.984;2022-09-13T00:01:00;10.30;90.90
29093;DHT22;16167;48.768;14.984;2022-09-13T00:03:29;10.20;90.50
29093;DHT22;16167;48.768;14.984;2022-09-13T00:05:57;10.20;90.30
29093;DHT22;16167;48.768;14.984;2022-09-13T00:08:27;10.20;88.00
29093;DHT22;16167;48.768;14.984;2022-09-13T00:10:55;10.10;89.80
29093;DHT22;16167;48.768;14.984;2022-09-13T00:13:23;10.10;91.10
29093;DHT22;16167;48.768;14.984;2022-09-13T00:15:51;10.00;91.00
29093;DHT22;16167;48.768;14.984;2022-09-13T00:18:20;10.10;90.90
29093;DHT22;16167;48.768;14.984;2022-09-13T00:20:48;10.00;90.20
29093;DHT22;16167;48.768;14.984;2022-09-13T00:23:16;10.00;91.80
29093;DHT22;16167;48.768;14.984;2022-09-13T00:25:44;10.00;91.80
29093;DHT22;16167;48.768;14.984;2022-09-13T00:28:12;9.90;92.00
29093;DHT22;16167;48.768;14.984;2022-09-13T00:30:40;9.90;92.70
29093;DHT22;16167;48.768;14.984;2022-09-13T00:33:08;9.90;93.00
29093;DHT22;16167;48.768;14.984;2022-09-13T00:35:37;9.80;91.00
29093;DHT22;16167;48.768;14.984;2022-09-13T00:38:05;9.80;91.50
29093;DHT22;16167;48.768;14.984;2022-09-13T00:40:36;9.80;91.40
29093;DHT22;16167;48.768;14.984;2022-09-13T00:43:08;9.70;92.30
29093;DHT22;16167;48.768;14.984;2022-09-13T00:45:38;9.80;93.70
29093;DHT22;16167;48.768;14.984;2022-09-13T00:48:07;9.70;93.30
29093;DHT22;16167;48.768;14.984;2022-09-13T00:50:43;9.70;91.50
29093;DHT22;16167;48.768;14.984;2022-09-13T00:53:15;9.70;91.70
29093;DHT22;16167;48.768;14.984;2022-09-13T00:55:48;9.70;92.20
29093;DHT22;16167;48.768;14.984;2022-09-13T00:58:21;9.60;93.90
29093;DHT22;16167;48.768;14.984;2022-09-13T01:00:52;9.60;93.00
29093;DHT22;16167;48.768;14.984;2022-09-13T01:03:22;9.60;94.10
29093;DHT22;16167;48.768;14.984;2022-09-13T01:05:57;9.60;92.40
29093;DHT22;16167;48.768;14.984;2022-09-13T01:08:28;9.60;98.60
29093;DHT22;16167;48.768;14.984;2022-09-13T01:10:59;9.70;98.40
29093;DHT22;16167;48.768;14.984;2022-09-13T01:13:30;9.60;98.40
29093;DHT22;16167;48.768;14.984;2022-09-13T01:15:59;9.60;95.50
29093;DHT22;16167;48.768;14.984;2022-09-13T01:18:27;9.70;95.70
29093;DHT22;16167;48.768;14.984;2022-09-13T01:27:22;9.60;94.20
29093;DHT22;16167;48.768;14.984;2022-09-13T01:30:15;9.60;96.80
29093;DHT22;16167;48.768;14.984;2022-09-13T01:36:04;9.60;98.10
29093;DHT22;16167;48.768;14.984;2022-09-13T01:38:48;9.50;97.10
29093;DHT22;16167;48.768;14.984;2022-09-13T01:41:32;9.50;96.70
29093;DHT22;16167;48.768;14.984;2022-09-13T01:44:15;9.50;97.00
29093;DHT22;16167;48.768;14.984;2022-09-13T01:46:56;9.40;95.30
29093;DHT22;16167;48.768;14.984;2022-09-13T01:49:31;9.50;94.30
29093;DHT22;16167;48.768;14.984;2022-09-13T01:52:04;9.50;95.60
29093;DHT22;16167;48.768;14.984;2022-09-13T01:54:38;9.40;95.20
29093;DHT22;16167;48.768;14.984;2022-09-13T01:57:13;9.40;94.40
29093;DHT22;16167;48.768;14.984;2022-09-13T01:59:47;9.30;94.40
29093;DHT22;16167;48.768;14.984;2022-09-13T02:02:20;9.30;94.00
29093;DHT22;16167;48.768;14.984;2022-09-13T02:04:54;9.30;94.50
29093;DHT22;16167;48.768;14.984;2022-09-13T02:07:28;9.30;95.20
29093;DHT22;16167;48.768;14.984;2022-09-13T02:10:01;9.20;96.80
29093;DHT22;16167;48.768;14.984;2022-09-13T02:12:31;9.20;97.30
29093;DHT22;16167;48.768;14.984;2022-09-13T02:15:06;9.20;96.90
29093;DHT22;16167;48.768;14.984;2022-09-13T02:17:37;9.20;95.60
29093;DHT22;16167;48.768;14.984;2022-09-13T02:20:09;9.20;94.80
29093;DHT22;16167;48.768;14.984;2022-09-13T02:22:43;9.20;95.50
29093;DHT22;16167;48.768;14.984;2022-09-13T02:25:15;9.20;95.40
29093;DHT22;16167;48.768;14.984;2022-09-13T02:27:46;9.20;94.80
29093;DHT22;16167;48.768;14.984;2022-09-13T02:30:16;9.20;94.90
29093;DHT22;16167;48.768;14.984;2022-09-13T02:32:50;9.20;94.80
29093;DHT22;16167;48.768;14.984;2022-09-13T02:35:23;9.10;96.30
29093;DHT22;16167;48.768;14.984;2022-09-13T02:37:57;9.10;96.50
29093;DHT22;16167;48.768;14.984;2022-09-13T02:40:31;9.10;97.30
29093;DHT22;16167;48.768;14.984;2022-09-13T02:43:07;9.10;98.40
29093;DHT22;16167;48.768;14.984;2022-09-13T02:45:41;9.10;98.80
29093;DHT22;16167;48.768;14.984;2022-09-13T02:48:20;9.10;99.90
29093;DHT22;16167;48.768;14.984;2022-09-13T02:50:58;9.10;99.60
29093;DHT22;16167;48.768;14.984;2022-09-13T02:53:32;9.10;98.00
29093;DHT22;16167;48.768;14.984;2022-09-13T02:56:11;9.10;96.40
29093;DHT22;16167;48.768;14.984;2022-09-13T02:58:43;9.10;96.70
29093;DHT22;16167;48.768;14.984;2022-09-13T03:01:13;9.10;96.40
29093;DHT22;16167;48.768;14.984;2022-09-13T03:03:42;9.00;97.30
29093;DHT22;16167;48.768;14.984;2022-09-13T03:06:10;9.00;97.20
29093;DHT22;16167;48.768;14.984;2022-09-13T03:08:38;9.00;96.30
29093;DHT22;16167;48.768;14.984;2022-09-13T03:11:13;9.00;98.70
29093;DHT22;16167;48.768;14.984;2022-09-13T03:13:55;9.00;99.60
29093;DHT22;16167;48.768;14.984;2022-09-13T03:19:45;9.00;99.90
29093;DHT22;16167;48.768;14.984;2022-09-13T03:22:26;9.00;98.40
29093;DHT22;16167;48.768;14.984;2022-09-13T03:25:05;9.00;98.40
29093;DHT22;16167;48.768;14.984;2022-09-13T03:27:38;9.00;97.70
29093;DHT22;16167;48.768;14.984;2022-09-13T03:30:11;9.00;99.90
29093;DHT22;16167;48.768;14.984;2022-09-13T03:32:47;9.00;99.80
29093;DHT22;16167;48.768;14.984;2022-09-13T03:35:24;9.00;99.90
29093;DHT22;16167;48.768;14.984;2022-09-13T03:37:57;9.00;98.10
29093;DHT22;16167;48.768;14.984;2022-09-13T03:40:34;9.00;97.80
29093;DHT22;16167;48.768;14.984;2022-09-13T03:43:09;9.00;99.40
29093;DHT22;16167;48.768;14.984;2022-09-13T03:45:43;9.00;99.70
29093;DHT22;16167;48.768;14.984;2022-09-13T03:48:12;8.90;98.90
29093;DHT22;16167;48.768;14.984;2022-09-13T03:50:44;8.90;99.30
29093;DHT22;16167;48.768;14.984;2022-09-13T03:53:15;8.90;99.90
29093;DHT22;16167;48.768;14.984;2022-09-13T03:55:45;9.00;99.90
29093;DHT22;16167;48.768;14.984;2022-09-13T03:58:15;8.90;98.90
29093;DHT22;16167;48.768;14.984;2022-09-13T04:00:44;8.90;97.60
29093;DHT22;16167;48.768;14.984;2022-09-13T04:03:12;8.90;98.10
29093;DHT22;16167;48.768;14.984;2022-09-13T04:05:42;8.90;98.50
29093;DHT22;16167;48.768;14.984;2022-09-13T04:08:10;8.90;96.60
29093;DHT22;16167;48.768;14.984;2022-09-13T04:10:38;8.90;96.40
29093;DHT22;16167;48.768;14.984;2022-09-13T04:13:06;8.90;96.00
29093;DHT22;16167;48.768;14.984;2022-09-13T04:15:34;8.90;95.20
29093;DHT22;16167;48.768;14.984;2022-09-13T04:18:02;8.80;96.30
29093;DHT22;16167;48.768;14.984;2022-09-13T04:20:31;8.80;95.00
29093;DHT22;16167;48.768;14.984;2022-09-13T04:23:00;8.80;96.30
29093;DHT22;16167;48.768;14.984;2022-09-13T04:25:28;8.80;97.30
29093;DHT22;16167;48.768;14.984;2022-09-13T04:27:57;8.70;97.90
29093;DHT22;16167;48.768;14.984;2022-09-13T04:30:25;8.70;97.80
29093;DHT22;16167;48.768;14.984;2022-09-13T04:32:53;8.70;99.00
29093;DHT22;16167;48.768;14.984;2022-09-13T04:35:22;8.70;99.60
29093;DHT22;16167;48.768;14.984;2022-09-13T04:37:50;8.70;98.80
29093;DHT22;16167;48.768;14.984;2022-09-13T04:40:23;8.70;98.20
29093;DHT22;16167;48.768;14.984;2022-09-13T04:42:51;8.70;97.90
29093;DHT22;16167;48.768;14.984;2022-09-13T04:45:19;8.70;97.10
29093;DHT22;16167;48.768;14.984;2022-09-13T04:47:50;8.70;96.40
29093;DHT22;16167;48.768;14.984;2022-09-13T04:50:18;8.70;96.50
29093;DHT22;16167;48.768;14.984;2022-09-13T04:52:46;8.70;97.00
29093;DHT22;16167;48.768;14.984;2022-09-13T04:55:14;8.70;98.30
29093;DHT22;16167;48.768;14.984;2022-09-13T04:57:43;8.80;98.20
29093;DHT22;16167;48.768;14.984;2022-09-13T05:00:12;8.70;98.80
29093;DHT22;16167;48.768;14.984;2022-09-13T05:02:40;8.80;99.10
29093;DHT22;16167;48.768;14.984;2022-09-13T05:05:08;8.80;98.70
29093;DHT22;16167;48.768;14.984;2022-09-13T05:07:36;8.80;98.40
29093;DHT22;16167;48.768;14.984;2022-09-13T05:10:05;8.90;98.60
29093;DHT22;16167;48.768;14.984;2022-09-13T05:12:34;8.90;97.80
29093;DHT22;16167;48.768;14.984;2022-09-13T05:15:04;8.90;98.80
29093;DHT22;16167;48.768;14.984;2022-09-13T05:17:32;8.90;99.90
29093;DHT22;16167;48.768;14.984;2022-09-13T05:20:01;9.00;98.80
29093;DHT22;16167;48.768;14.984;2022-09-13T05:22:29;9.00;99.70
29093;DHT22;16167;48.768;14.984;2022-09-13T05:24:57;9.10;98.80
29093;DHT22;16167;48.768;14.984;2022-09-13T05:27:25;9.10;97.70
29093;DHT22;16167;48.768;14.984;2022-09-13T05:29:53;9.10;98.30
29093;DHT22;16167;48.768;14.984;2022-09-13T05:32:22;9.10;99.10
29093;DHT22;16167;48.768;14.984;2022-09-13T05:34:50;9.20;97.50
29093;DHT22;16167;48.768;14.984;2022-09-13T05:37:18;9.20;97.30
29093;DHT22;16167;48.768;14.984;2022-09-13T05:39:46;9.30;96.60
29093;DHT22;16167;48.768;14.984;2022-09-13T05:42:34;9.30;96.70
29093;DHT22;16167;48.768;14.984;2022-09-13T05:45:03;9.50;95.20
29093;DHT22;16167;48.768;14.984;2022-09-13T05:47:33;9.60;94.40
29093;DHT22;16167;48.768;14.984;2022-09-13T05:50:01;9.70;92.60
29093;DHT22;16167;48.768;14.984;2022-09-13T05:52:51;9.80;93.50
29093;DHT22;16167;48.768;14.984;2022-09-13T05:55:19;9.80;93.40
29093;DHT22;16167;48.768;14.984;2022-09-13T05:57:48;9.90;91.30
29093;DHT22;16167;48.768;14.984;2022-09-13T06:00:16;10.00;91.30
29093;DHT22;16167;48.768;14.984;2022-09-13T06:02:46;10.00;93.00
29093;DHT22;16167;48.768;14.984;2022-09-13T06:05:14;10.00;92.00
29093;DHT22;16167;48.768;14.984;2022-09-13T06:07:42;10.00;92.40
29093;DHT22;16167;48.768;14.984;2022-09-13T06:10:10;10.00;91.80
29093;DHT22;16167;48.768;14.984;2022-09-13T06:12:39;10.10;92.90
29093;DHT22;16167;48.768;14.984;2022-09-13T06:15:08;10.20;92.90
29093;DHT22;16167;48.768;14.984;2022-09-13T06:17:37;10.20;94.30
29093;DHT22;16167;48.768;14.984;2022-09-13T06:20:07;10.40;93.20
29093;DHT22;16167;48.768;14.984;2022-09-13T06:22:36;10.50;90.90
29093;DHT22;16167;48.768;14.984;2022-09-13T06:25:05;10.60;91.00
29093;DHT22;16167;48.768;14.984;2022-09-13T06:27:33;10.80;92.60
29093;DHT22;16167;48.768;14.984;2022-09-13T06:30:01;10.90;91.30
29093;DHT22;16167;48.768;14.984;2022-09-13T06:32:29;11.00;91.00
29093;DHT22;16167;48.768;14.984;2022-09-13T06:34:57;11.20;89.60
29093;DHT22;16167;48.768;14.984;2022-09-13T06:37:27;11.40;86.30
29093;DHT22;16167;48.768;14.984;2022-09-13T06:39:55;11.50;79.30
29093;DHT22;16167;48.768;14.984;2022-09-13T06:42:23;11.70;79.80
29093;DHT22;16167;48.768;14.984;2022-09-13T06:44:52;11.90;70.90
29093;DHT22;16167;48.768;14.984;2022-09-13T06:47:20;12.10;72.80
29093;DHT22;16167;48.768;14.984;2022-09-13T06:49:48;12.40;69.60
29093;DHT22;16167;48.768;14.984;2022-09-13T06:52:16;12.50;60.90
29093;DHT22;16167;48.768;14.984;2022-09-13T06:54:45;12.60;62.20
29093;DHT22;16167;48.768;14.984;2022-09-13T06:57:13;12.70;57.30
29093;DHT22;16167;48.768;14.984;2022-09-13T06:59:41;12.90;59.80
29093;DHT22;16167;48.768;14.984;2022-09-13T07:02:10;13.10;57.50
29093;DHT22;16167;48.768;14.984;2022-09-13T07:04:40;13.20;46.70
29093;DHT22;16167;48.768;14.984;2022-09-13T07:07:08;13.40;43.10
29093;DHT22;16167;48.768;14.984;2022-09-13T07:09:36;13.50;48.90
29093;DHT22;16167;48.768;14.984;2022-09-13T07:12:05;13.80;45.30
29093;DHT22;16167;48.768;14.984;2022-09-13T07:14:34;14.00;41.40
29093;DHT22;16167;48.768;14.984;2022-09-13T07:17:02;14.20;40.30
29093;DHT22;16167;48.768;14.984;2022-09-13T07:19:30;14.40;36.00
29093;DHT22;16167;48.768;14.984;2022-09-13T07:21:58;14.70;33.50
29093;DHT22;16167;48.768;14.984;2022-09-13T07:24:26;14.80;21.20
29093;DHT22;16167;48.768;14.984;2022-09-13T07:26:54;15.00;16.40
29093;DHT22;16167;48.768;14.984;2022-09-13T07:29:24;15.20;20.10
29093;DHT22;16167;48.768;14.984;2022-09-13T07:31:53;15.40;15.80
29093;DHT22;16167;48.768;14.984;2022-09-13T07:34:23;15.50;8.40
29093;DHT22;16167;48.768;14.984;2022-09-13T07:36:52;15.70;11.10
29093;DHT22;16167;48.768;14.984;2022-09-13T07:39:20;15.90;1.50
29093;DHT22;16167;48.768;14.984;2022-09-13T07:41:49;16.00;1.00
29093;DHT22;16167;48.768;14.984;2022-09-13T07:44:17;16.20;1.00
29093;DHT22;16167;48.768;14.984;2022-09-13T07:46:46;16.40;1.00
29093;DHT22;16167;48.768;14.984;2022-09-13T07:49:15;16.70;1.00
29093;DHT22;16167;48.768;14.984;2022-09-13T07:51:43;16.90;1.00
29093;DHT22;16167;48.768;14.984;2022-09-13T07:54:13;17.10;1.00
29093;DHT22;16167;48.768;14.984;2022-09-13T07:56:42;17.20;1.00
29093;DHT22;16167;48.768;14.984;2022-09-13T07:59:12;17.40;1.00
29093;DHT22;16167;48.768;14.984;2022-09-13T08:01:41;17.60;1.00
29093;DHT22;16167;48.768;14.984;2022-09-13T08:04:12;17.70;1.00
29093;DHT22;16167;48.768;14.984;2022-09-13T08:06:40;18.00;1.00
29093;DHT22;16167;48.768;14.984;2022-09-13T08:09:09;18.30;1.00
29093;DHT22;16167;48.768;14.984;2022-09-13T08:11:38;18.40;1.00
29093;DHT22;16167;48.768;14.984;2022-09-13T08:14:08;18.60;1.00
29093;DHT22;16167;48.768;14.984;2022-09-13T08:16:37;18.70;1.00
29093;DHT22;16167;48.768;14.984;2022-09-13T08:19:06;18.80;1.00
29093;DHT22;16167;48.768;14.984;2022-09-13T08:21:38;18.90;1.00
29093;DHT22;16167;48.768;14.984;2022-09-13T08:24:13;19.00;1.00
29093;DHT22;16167;48.768;14.984;2022-09-13T08:26:41;19.10;1.00
29093;DHT22;16167;48.768;14.984;2022-09-13T08:29:10;19.30;1.00
29093;DHT22;16167;48.768;14.984;2022-09-13T08:31:39;19.40;1.00
29093;DHT22;16167;48.768;14.984;2022-09-13T08:34:10;19.60;1.00
29093;DHT22;16167;48.768;14.984;2022-09-13T08:36:42;19.70;1.00
29093;DHT22;16167;48.768;14.984;2022-09-13T08:39:11;19.90;1.00
29093;DHT22;16167;48.768;14.984;2022-09-13T08:42:02;20.20;1.00
29093;DHT22;16167;48.768;14.984;2022-09-13T08:44:41;20.50;1.00
29093;DHT22;16167;48.768;14.984;2022-09-13T08:47:24;20.70;1.00
29093;DHT22;16167;48.768;14.984;2022-09-13T08:50:00;20.90;1.00
29093;DHT22;16167;48.768;14.984;2022-09-13T08:52:37;21.10;1.00
29093;DHT22;16167;48.768;14.984;2022-09-13T08:55:24;21.30;1.00
29093;DHT22;16167;48.768;14.984;2022-09-13T08:57:58;21.40;1.00
29093;DHT22;16167;48.768;14.984;2022-09-13T09:00:32;21.60;1.00
29093;DHT22;16167;48.768;14.984;2022-09-13T09:03:13;21.80;1.00
29093;DHT22;16167;48.768;14.984;2022-09-13T09:05:45;21.90;1.00
29093;DHT22;16167;48.768;14.984;2022-09-13T09:08:24;22.10;1.00
29093;DHT22;16167;48.768;14.984;2022-09-13T09:10:56;22.20;1.00
29093;DHT22;16167;48.768;14.984;2022-09-13T09:13:28;22.30;1.00
29093;DHT22;16167;48.768;14.984;2022-09-13T09:15:59;22.40;1.00
29093;DHT22;16167;48.768;14.984;2022-09-13T09:18:31;22.30;1.00
29093;DHT22;16167;48.768;14.984;2022-09-13T09:21:00;22.30;1.00
29093;DHT22;16167;48.768;14.984;2022-09-13T09:23:35;22.40;1.00
29093;DHT22;16167;48.768;14.984;2022-09-13T09:26:14;22.60;1.00
29093;DHT22;16167;48.768;14.984;2022-09-13T09:28:43;22.80;1.00
29093;DHT22;16167;48.768;14.984;2022-09-13T09:31:16;23.10;1.00
29093;DHT22;16167;48.768;14.984;2022-09-13T09:33:57;23.20;1.00
29093;DHT22;16167;48.768;14.984;2022-09-13T09:36:34;23.50;1.00
29093;DHT22;16167;48.768;14.984;2022-09-13T09:39:10;23.50;1.00
29093;DHT22;16167;48.768;14.984;2022-09-13T09:41:39;23.60;1.00
29093;DHT22;16167;48.768;14.984;2022-09-13T09:44:16;23.70;1.00
29093;DHT22;16167;48.768;14.984;2022-09-13T09:46:47;23.80;1.00
29093;DHT22;16167;48.768;14.984;2022-09-13T09:49:21;23.90;1.00
29093;DHT22;16167;48.768;14.984;2022-09-13T09:52:09;24.10;1.00
29093;DHT22;16167;48.768;14.984;2022-09-13T09:54:39;24.30;1.00
29093;DHT22;16167;48.768;14.984;2022-09-13T09:57:08;24.50;1.00
29093;DHT22;16167;48.768;14.984;2022-09-13T09:59:37;24.80;1.00
29093;DHT22;16167;48.768;14.984;2022-09-13T10:02:14;25.00;1.00
29093;DHT22;16167;48.768;14.984;2022-09-13T10:04:53;25.20;1.00
29093;DHT22;16167;48.768;14.984;2022-09-13T10:07:25;25.40;1.00
29093;DHT22;16167;48.768;14.984;2022-09-13T10:10:01;25.60;1.00
29093;DHT22;16167;48.768;14.984;2022-09-13T10:12:33;25.70;1.00
29093;DHT22;16167;48.768;14.984;2022-09-13T10:15:09;25.90;1.00
29093;DHT22;16167;48.768;14.984;2022-09-13T10:17:41;26.10;1.00
29093;DHT22;16167;48.768;14.984;2022-09-13T10:20:20;26.20;1.00
29093;DHT22;16167;48.768;14.984;2022-09-13T10:23:11;26.30;1.00
29093;DHT22;16167;48.768;14.984;2022-09-13T10:25:55;26.40;1.00
29093;DHT22;16167;48.768;14.984;2022-09-13T10:28:24;26.60;1.00
29093;DHT22;16167;48.768;14.984;2022-09-13T10:30:55;26.50;1.00
29093;DHT22;16167;48.768;14.984;2022-09-13T10:33:28;26.50;1.00
29093;DHT22;16167;48.768;14.984;2022-09-13T10:35:58;26.70;1.00
29093;DHT22;16167;48.768;14.984;2022-09-13T10:38:30;26.90;1.00
29093;DHT22;16167;48.768;14.984;2022-09-13T10:41:02;27.00;1.00
29093;DHT22;16167;48.768;14.984;2022-09-13T10:43:32;27.10;1.00
29093;DHT22;16167;48.768;14.984;2022-09-13T10:46:02;27.10;1.00
29093;DHT22;16167;48.768;14.984;2022-09-13T10:48:44;27.20;1.00
29093;DHT22;16167;48.768;14.984;2022-09-13T10:51:32;27.30;1.00
29093;DHT22;16167;48.768;14.984;2022-09-13T10:54:22;27.40;1.00
29093;DHT22;16167;48.768;14.984;2022-09-13T10:56:51;27.60;1.00
29093;DHT22;16167;48.768;14.984;2022-09-13T10:59:22;27.70;1.00
29093;DHT22;16167;48.768;14.984;2022-09-13T11:04:56;28.00;1.00
29093;DHT22;16167;48.768;14.984;2022-09-13T11:07:45;28.10;1.00
29093;DHT22;16167;48.768;14.984;2022-09-13T11:10:21;28.20;1.00
29093;DHT22;16167;48.768;14.984;2022-09-13T11:13:00;28.20;1.00
29093;DHT22;16167;48.768;14.984;2022-09-13T11:15:40;28.00;1.00
29093;DHT22;16167;48.768;14.984;2022-09-13T11:18:32;28.10;1.00
29093;DHT22;16167;48.768;14.984;2022-09-13T11:21:08;28.10;1.00
29093;DHT22;16167;48.768;14.984;2022-09-13T11:24:00;28.10;1.00
29093;DHT22;16167;48.768;14.984;2022-09-13T11:26:39;28.10;1.00
29093;DHT22;16167;48.768;14.984;2022-09-13T11:29:29;27.90;1.00
29093;DHT22;16167;48.768;14.984;2022-09-13T11:32:07;27.60;1.00
29093;DHT22;16167;48.768;14.984;2022-09-13T11:34:46;27.60;1.00
29093;DHT22;16167;48.768;14.984;2022-09-13T11:37:42;27.50;1.00
29093;DHT22;16167;48.768;14.984;2022-09-13T11:40:28;27.30;1.00
29093;DHT22;16167;48.768;14.984;2022-09-13T11:43:12;27.10;1.00
29093;DHT22;16167;48.768;14.984;2022-09-13T11:45:51;27.00;1.00
29093;DHT22;16167;48.768;14.984;2022-09-13T11:48:34;27.40;1.00
29093;DHT22;16167;48.768;14.984;2022-09-13T11:51:09;27.90;1.00
29093;DHT22;16167;48.768;14.984;2022-09-13T11:54:00;28.30;1.00
29093;DHT22;16167;48.768;14.984;2022-09-13T11:56:36;28.50;1.00
29093;DHT22;16167;48.768;14.984;2022-09-13T11:59:17;28.70;1.00
29093;DHT22;16167;48.768;14.984;2022-09-13T12:01:50;28.70;1.00
29093;DHT22;16167;48.768;14.984;2022-09-13T12:04:24;28.50;1.00
29093;DHT22;16167;48.768;14.984;2022-09-13T12:07:00;28.30;1.00
29093;DHT22;16167;48.768;14.984;2022-09-13T12:09:32;28.30;1.00
29093;DHT22;16167;48.768;14.984;2022-09-13T12:12:04;28.50;1.00
29093;DHT22;16167;48.768;14.984;2022-09-13T12:14:41;28.50;1.00
29093;DHT22;16167;48.768;14.984;2022-09-13T12:17:21;28.60;1.00
29093;DHT22;16167;48.768;14.984;2022-09-13T12:19:52;28.40;1.00
29093;DHT22;16167;48.768;14.984;2022-09-13T12:22:22;28.20;1.00
29093;DHT22;16167;48.768;14.984;2022-09-13T12:24:58;28.60;1.00
29093;DHT22;16167;48.768;14.984;2022-09-13T12:27:35;28.80;1.00
29093;DHT22;16167;48.768;14.984;2022-09-13T12:30:13;29.10;1.00
29093;DHT22;16167;48.768;14.984;2022-09-13T12:32:43;29.40;1.00
29093;DHT22;16167;48.768;14.984;2022-09-13T12:35:18;29.60;1.00
29093;DHT22;16167;48.768;14.984;2022-09-13T12:40:57;30.30;1.00
29093;DHT22;16167;48.768;14.984;2022-09-13T12:43:51;30.40;1.00
29093;DHT22;16167;48.768;14.984;2022-09-13T12:46:44;30.60;1.00
29093;DHT22;16167;48.768;14.984;2022-09-13T12:49:31;30.70;1.00
29093;DHT22;16167;48.768;14.984;2022-09-13T12:52:29;30.80;1.00
29093;DHT22;16167;48.768;14.984;2022-09-13T12:55:26;31.00;1.00
29093;DHT22;16167;48.768;14.984;2022-09-13T12:58:40;31.10;1.00
29093;DHT22;16167;48.768;14.984;2022-09-13T13:01:14;30.40;1.00
29093;DHT22;16167;48.768;14.984;2022-09-13T13:03:48;29.90;1.00
29093;DHT22;16167;48.768;14.984;2022-09-13T13:06:26;29.60;1.00
29093;DHT22;16167;48.768;14.984;2022-09-13T13:08:57;29.50;1.00
29093;DHT22;16167;48.768;14.984;2022-09-13T13:11:27;29.40;1.00
29093;DHT22;16167;48.768;14.984;2022-09-13T13:13:58;29.40;1.00
29093;DHT22;16167;48.768;14.984;2022-09-13T13:16:31;29.00;1.00
29093;DHT22;16167;48.768;14.984;2022-09-13T13:19:01;28.60;1.00
29093;DHT22;16167;48.768;14.984;2022-09-13T13:21:39;28.10;1.00
29093;DHT22;16167;48.768;14.984;2022-09-13T13:24:45;27.60;1.00
29093;DHT22;16167;48.768;14.984;2022-09-13T13:27:34;27.10;1.00
29093;DHT22;16167;48.768;14.984;2022-09-13T13:33:23;26.40;1.00
29093;DHT22;16167;48.768;14.984;2022-09-13T13:35:52;26.20;1.00
29093;DHT22;16167;48.768;14.984;2022-09-13T13:38:46;26.00;1.00
29093;DHT22;16167;48.768;14.984;2022-09-13T13:45:04;25.70;1.00
29093;DHT22;16167;48.768;14.984;2022-09-13T13:54:02;25.20;1.00
29093;DHT22;16167;48.768;14.984;2022-09-13T13:56:45;24.90;1.00
29093;DHT22;16167;48.768;14.984;2022-09-13T13:59:21;24.70;1.00
29093;DHT22;16167;48.768;14.984;2022-09-13T14:01:54;24.60;1.00
29093;DHT22;16167;48.768;14.984;2022-09-13T14:10:49;24.30;1.00
29093;DHT22;16167;48.768;14.984;2022-09-13T14:13:38;24.10;1.00
29093;DHT22;16167;48.768;14.984;2022-09-13T14:16:16;23.90;1.00
29093;DHT22;16167;48.768;14.984;2022-09-13T14:19:20;23.70;1.00
29093;DHT22;16167;48.768;14.984;2022-09-13T14:22:12;23.60;1.00
29093;DHT22;16167;48.768;14.984;2022-09-13T14:24:41;23.30;1.00
29093;DHT22;16167;48.768;14.984;2022-09-13T14:27:18;23.20;1.00
29093;DHT22;16167;48.768;14.984;2022-09-13T14:29:49;23.00;1.00
29093;DHT22;16167;48.768;14.984;2022-09-13T14:32:20;22.90;1.00
29093;DHT22;16167;48.768;14.984;2022-09-13T14:34:57;22.80;1.00
29093;DHT22;16167;48.768;14.984;2022-09-13T14:37:28;22.80;1.00
29093;DHT22;16167;48.768;14.984;2022-09-13T14:39:59;22.60;1.00
29093;DHT22;16167;48.768;14.984;2022-09-13T14:42:39;22.60;1.00
29093;DHT22;16167;48.768;14.984;2022-09-13T14:45:12;22.50;1.00
29093;DHT22;16167;48.768;14.984;2022-09-13T14:47:47;22.40;1.00
29093;DHT22;16167;48.768;14.984;2022-09-13T14:50:19;22.40;1.00
29093;DHT22;16167;48.768;14.984;2022-09-13T14:52:52;22.30;1.00
29093;DHT22;16167;48.768;14.984;2022-09-13T14:55:22;22.20;1.00
29093;DHT22;16167;48.768;14.984;2022-09-13T14:57:58;22.20;1.00
29093;DHT22;16167;48.768;14.984;2022-09-13T15:00:30;22.10;1.00
29093;DHT22;16167;48.768;14.984;2022-09-13T15:03:01;22.00;1.00
29093;DHT22;16167;48.768;14.984;2022-09-13T15:05:31;22.00;1.00
29093;DHT22;16167;48.768;14.984;2022-09-13T15:08:04;22.00;1.00
29093;DHT22;16167;48.768;14.984;2022-09-13T15:10:51;22.00;1.00
29093;DHT22;16167;48.768;14.984;2022-09-13T15:13:20;21.80;1.00
29093;DHT22;16167;48.768;14.984;2022-09-13T15:15:48;21.70;1.00
29093;DHT22;16167;48.768;14.984;2022-09-13T15:18:24;21.60;1.00
29093;DHT22;16167;48.768;14.984;2022-09-13T15:20:54;21.50;1.00
29093;DHT22;16167;48.768;14.984;2022-09-13T15:23:26;21.40;1.00
29093;DHT22;16167;48.768;14.984;2022-09-13T15:25:57;21.20;1.00
29093;DHT22;16167;48.768;14.984;2022-09-13T15:28:32;21.10;1.00
29093;DHT22;16167;48.768;14.984;2022-09-13T15:31:00;21.00;1.00
29093;DHT22;16167;48.768;14.984;2022-09-13T15:33:30;20.90;1.00
29093;DHT22;16167;48.768;14.984;2022-09-13T15:36:13;20.90;1.00
29093;DHT22;16167;48.768;14.984;2022-09-13T15:38:59;20.80;1.00
29093;DHT22;16167;48.768;14.984;2022-09-13T15:41:29;20.70;1.00
29093;DHT22;16167;48.768;14.984;2022-09-13T15:44:00;20.70;1.00
29093;DHT22;16167;48.768;14.984;2022-09-13T15:46:29;20.70;1.00
29093;DHT22;16167;48.768;14.984;2022-09-13T15:49:00;20.60;1.00
29093;DHT22;16167;48.768;14.984;2022-09-13T15:51:29;20.60;1.00
29093;DHT22;16167;48.768;14.984;2022-09-13T15:54:07;20.60;1.00
29093;DHT22;16167;48.768;14.984;2022-09-13T15:56:40;20.50;1.00
29093;DHT22;16167;48.768;14.984;2022-09-13T15:59:12;20.50;1.00
29093;DHT22;16167;48.768;14.984;2022-09-13T16:01:41;20.40;1.00
29093;DHT22;16167;48.768;14.984;2022-09-13T16:04:09;20.40;1.00
29093;DHT22;16167;48.768;14.984;2022-09-13T16:06:39;20.40;1.00
29093;DHT22;16167;48.768;14.984;2022-09-13T16:09:14;20.30;1.00
29093;DHT22;16167;48.768;14.984;2022-09-13T16:11:43;20.40;1.00
29093;DHT22;16167;48.768;14.984;2022-09-13T16:14:12;20.40;1.00
29093;DHT22;16167;48.768;14.984;2022-09-13T16:16:41;20.40;1.00
29093;DHT22;16167;48.768;14.984;2022-09-13T16:19:17;20.50;1.00
29093;DHT22;16167;48.768;14.984;2022-09-13T16:21:47;20.50;1.00
29093;DHT22;16167;48.768;14.984;2022-09-13T16:24:15;20.50;1.00
29093;DHT22;16167;48.768;14.984;2022-09-13T16:26:44;20.50;1.00
29093;DHT22;16167;48.768;14.984;2022-09-13T16:29:13;20.50;1.00
29093;DHT22;16167;48.768;14.984;2022-09-13T16:31:41;20.40;1.00
29093;DHT22;16167;48.768;14.984;2022-09-13T16:34:10;20.40;1.00
29093;DHT22;16167;48.768;14.984;2022-09-13T16:36:38;20.30;1.00
29093;DHT22;16167;48.768;14.984;2022-09-13T16:39:06;20.20;1.00
29093;DHT22;16167;48.768;14.984;2022-09-13T16:41:38;20.20;1.00
29093;DHT22;16167;48.768;14.984;2022-09-13T16:44:06;20.10;1.00
29093;DHT22;16167;48.768;14.984;2022-09-13T16:46:36;20.00;1.00